sensor_id;sensor_type;location;lat;lon;timestamp;P1;durP1;ratioP1;P2;durP2;ratioP2
27921;SDS011;15261;50.356;10.340;2023-06-14T20:06:06;2.63;;;2.42;;
27921;SDS011;15261;50.356;10.340;2023-06-14T20:08:32;6.60;;;2.60;;
27921;SDS011;15261;50.356;10.340;2023-06-14T20:10:58;2.83;;;2.33;;
27921;SDS011;15261;50.356;10.340;2023-06-14T20:13:23;2.70;;;2.50;;
27921;SDS011;15261;50.356;10.340;2023-06-14T20:15:49;3.30;;;2.40;;
27921;SDS011;15261;50.356;10.340;2023-06-14T20:18:14;2.70;;;2.47;;
27921;SDS011;15261;50.356;10.340;2023-06-14T20:20:40;3.22;;;2.63;;
27921;SDS011;15261;50.356;10.340;2023-06-14T20:23:06;3.47;;;2.58;;
27921;SDS011;15261;50.356;10.340;2023-06-14T20:25:32;6.05;;;2.55;;
27921;SDS011;15261;50.356;10.340;2023-06-14T20:27:58;3.67;;;2.50;;
27921;SDS011;15261;50.356;10.340;2023-06-14T20:30:23;2.67;;;2.47;;
27921;SDS011;15261;50.356;10.340;2023-06-14T20:32:49;2.75;;;2.55;;
27921;SDS011;15261;50.356;10.340;2023-06-14T20:35:14;2.80;;;2.60;;
27921;SDS011;15261;50.356;10.340;2023-06-14T20:37:40;2.78;;;2.60;;
27921;SDS011;15261;50.356;10.340;2023-06-14T20:40:07;4.95;;;2.60;;
27921;SDS011;15261;50.356;10.340;2023-06-14T20:42:43;2.90;;;2.70;;
27921;SDS011;15261;50.356;10.340;2023-06-14T20:45:10;2.85;;;2.45;;
27921;SDS011;15261;50.356;10.340;2023-06-14T20:47:36;3.88;;;2.70;;
27921;SDS011;15261;50.356;10.340;2023-06-14T20:50:02;3.25;;;2.75;;
27921;SDS011;15261;50.356;10.340;2023-06-14T20:52:29;3.25;;;2.40;;
27921;SDS011;15261;50.356;10.340;2023-06-14T20:54:55;3.33;;;2.45;;
27921;SDS011;15261;50.356;10.340;2023-06-14T20:57:22;2.80;;;2.47;;
27921;SDS011;15261;50.356;10.340;2023-06-14T20:59:47;2.85;;;2.63;;
27921;SDS011;15261;50.356;10.340;2023-06-14T21:02:14;2.67;;;2.47;;
27921;SDS011;15261;50.356;10.340;2023-06-14T21:04:45;4.40;;;2.80;;
27921;SDS011;15261;50.356;10.340;2023-06-14T21:07:11;3.05;;;2.60;;
27921;SDS011;15261;50.356;10.340;2023-06-14T21:09:37;2.78;;;2.55;;
27921;SDS011;15261;50.356;10.340;2023-06-14T21:12:04;5.40;;;2.53;;
27921;SDS011;15261;50.356;10.340;2023-06-14T21:14:31;3.65;;;2.80;;
27921;SDS011;15261;50.356;10.340;2023-06-14T21:16:56;4.35;;;2.80;;
27921;SDS011;15261;50.356;10.340;2023-06-14T21:19:22;4.22;;;2.88;;
27921;SDS011;15261;50.356;10.340;2023-06-14T21:21:47;4.03;;;2.90;;
27921;SDS011;15261;50.356;10.340;2023-06-14T21:24:13;2.65;;;2.55;;
27921;SDS011;15261;50.356;10.340;2023-06-14T21:26:39;5.07;;;2.75;;
27921;SDS011;15261;50.356;10.340;2023-06-14T21:29:04;4.35;;;2.83;;
27921;SDS011;15261;50.356;10.340;2023-06-14T21:31:30;5.03;;;2.80;;
27921;SDS011;15261;50.356;10.340;2023-06-14T21:33:55;3.25;;;3.03;;
27921;SDS011;15261;50.356;10.340;2023-06-14T21:36:22;2.95;;;2.75;;
27921;SDS011;15261;50.356;10.340;2023-06-14T21:38:47;3.78;;;2.60;;
27921;SDS011;15261;50.356;10.340;2023-06-14T21:41:13;4.72;;;2.55;;
27921;SDS011;15261;50.356;10.340;2023-06-14T21:43:39;3.15;;;2.67;;
27921;SDS011;15261;50.356;10.340;2023-06-14T21:46:05;3.58;;;2.60;;
27921;SDS011;15261;50.356;10.340;2023-06-14T21:48:30;3.63;;;2.78;;
27921;SDS011;15261;50.356;10.340;2023-06-14T21:50:56;3.58;;;3.15;;
27921;SDS011;15261;50.356;10.340;2023-06-14T21:53:22;3.42;;;3.10;;
27921;SDS011;15261;50.356;10.340;2023-06-14T21:55:48;6.20;;;3.38;;
27921;SDS011;15261;50.356;10.340;2023-06-14T21:58:14;6.03;;;3.20;;
27921;SDS011;15261;50.356;10.340;2023-06-14T22:00:39;6.50;;;3.15;;
27921;SDS011;15261;50.356;10.340;2023-06-14T22:03:05;3.83;;;3.00;;
27921;SDS011;15261;50.356;10.340;2023-06-14T22:05:31;3.92;;;2.80;;
27921;SDS011;15261;50.356;10.340;2023-06-14T22:07:56;3.85;;;2.60;;
27921;SDS011;15261;50.356;10.340;2023-06-14T22:10:23;4.72;;;2.95;;
27921;SDS011;15261;50.356;10.340;2023-06-14T22:12:48;5.30;;;3.28;;
27921;SDS011;15261;50.356;10.340;2023-06-14T22:15:14;4.47;;;3.05;;
27921;SDS011;15261;50.356;10.340;2023-06-14T22:17:41;3.60;;;3.30;;
27921;SDS011;15261;50.356;10.340;2023-06-14T22:20:08;3.50;;;3.20;;
27921;SDS011;15261;50.356;10.340;2023-06-14T22:22:35;3.60;;;3.30;;
27921;SDS011;15261;50.356;10.340;2023-06-14T22:25:03;3.30;;;3.10;;
27921;SDS011;15261;50.356;10.340;2023-06-14T22:27:29;4.15;;;3.30;;
27921;SDS011;15261;50.356;10.340;2023-06-14T22:29:55;3.28;;;3.08;;
27921;SDS011;15261;50.356;10.340;2023-06-14T22:32:27;6.10;;;3.70;;
27921;SDS011;15261;50.356;10.340;2023-06-14T22:34:57;3.88;;;3.47;;
27921;SDS011;15261;50.356;10.340;2023-06-14T22:37:27;3.70;;;3.30;;
27921;SDS011;15261;50.356;10.340;2023-06-14T22:40:02;3.47;;;3.28;;
27921;SDS011;15261;50.356;10.340;2023-06-14T22:42:36;4.80;;;3.45;;
27921;SDS011;15261;50.356;10.340;2023-06-14T22:45:11;4.03;;;3.72;;
27921;SDS011;15261;50.356;10.340;2023-06-14T22:47:40;3.70;;;3.40;;
27921;SDS011;15261;50.356;10.340;2023-06-14T22:50:06;3.80;;;3.50;;
27921;SDS011;15261;50.356;10.340;2023-06-14T22:52:32;4.28;;;3.88;;
27921;SDS011;15261;50.356;10.340;2023-06-14T22:54:59;3.85;;;3.50;;
27921;SDS011;15261;50.356;10.340;2023-06-14T22:57:26;10.55;;;3.92;;
27921;SDS011;15261;50.356;10.340;2023-06-14T22:59:52;3.95;;;3.63;;
27921;SDS011;15261;50.356;10.340;2023-06-14T23:02:18;3.90;;;3.60;;
27921;SDS011;15261;50.356;10.340;2023-06-14T23:04:44;3.92;;;3.58;;
27921;SDS011;15261;50.356;10.340;2023-06-14T23:07:11;4.40;;;3.58;;
27921;SDS011;15261;50.356;10.340;2023-06-14T23:09:40;4.70;;;3.53;;
27921;SDS011;15261;50.356;10.340;2023-06-14T23:12:10;4.13;;;3.60;;
27921;SDS011;15261;50.356;10.340;2023-06-14T23:14:36;4.07;;;3.70;;
27921;SDS011;15261;50.356;10.340;2023-06-14T23:17:03;3.70;;;3.40;;
27921;SDS011;15261;50.356;10.340;2023-06-14T23:19:30;4.13;;;3.58;;
27921;SDS011;15261;50.356;10.340;2023-06-14T23:21:56;6.15;;;3.85;;
27921;SDS011;15261;50.356;10.340;2023-06-14T23:24:24;4.72;;;3.33;;
27921;SDS011;15261;50.356;10.340;2023-06-14T23:26:52;3.85;;;3.55;;
27921;SDS011;15261;50.356;10.340;2023-06-14T23:29:23;5.82;;;3.38;;
27921;SDS011;15261;50.356;10.340;2023-06-14T23:31:52;3.67;;;3.35;;
27921;SDS011;15261;50.356;10.340;2023-06-14T23:34:19;4.85;;;3.67;;
27921;SDS011;15261;50.356;10.340;2023-06-14T23:36:45;4.32;;;3.33;;
27921;SDS011;15261;50.356;10.340;2023-06-14T23:39:12;4.05;;;3.72;;
27921;SDS011;15261;50.356;10.340;2023-06-14T23:41:38;4.18;;;3.80;;
27921;SDS011;15261;50.356;10.340;2023-06-14T23:44:06;6.50;;;3.30;;
27921;SDS011;15261;50.356;10.340;2023-06-14T23:46:31;5.70;;;3.78;;
27921;SDS011;15261;50.356;10.340;2023-06-14T23:48:57;4.05;;;3.65;;
27921;SDS011;15261;50.356;10.340;2023-06-14T23:51:24;4.60;;;3.60;;
27921;SDS011;15261;50.356;10.340;2023-06-14T23:53:50;3.40;;;3.20;;
27921;SDS011;15261;50.356;10.340;2023-06-14T23:56:31;4.18;;;3.78;;
27921;SDS011;15261;50.356;10.340;2023-06-14T23:58:58;3.80;;;3.40;;
